Terminal Aerodrome Forecast
Issued by NWS

Home | Current Version | Previous Version | Text Only | Print | Product List | Glossary On
Versions: 1 2 3 4 5 6 7 8 9 10 11 12 13 14 15 16 17 18 19
000
FTUS44 KLIX 190210 AAA
TAFHDC
TAF AMD
KHDC 190210Z 1902/1924 24006KT P6SM FEW025 SCT060 OVC130
      TEMPO 1902/1903 33018G30KT 2SM +SHRA OVC020
     FM190300 31015G25KT P6SM VCSH BKN030
     FM190400 33014G22KT P6SM BKN040
     FM190600 35011G18KT P6SM SCT090
     FM192200 35007KT P6SM SKC=

USA.gov is the U.S. government's official web portal to all federal, state and local government web resources and services.